KFKL/FKL METAR and TAF weather

Enter ICAO airport designator
Station Type Date Time Source
KFKL METAR 2021/04/17 03:07 UTC NOAA

KFKL 170307Z AUTO 29007KT 10SM OVC007 03/02 A2987 RMK AO2 UPE0257 CIG 004V012


Station Type Date Time Source
KFKL Decoded METAR 2021/04/17 03:07 UTC NOAA

Franklin, Venango Regional Airport, PA, United States (KFKL) 41-23N 079-52W
Apr 16, 2021 - 11:07 PM EDT / 2021.04.17 0307 UTC
Wind: from the WNW (290 degrees) at 8 MPH (7 KT):0
Visibility: 10 mile(s):0
Sky conditions: overcast
Temperature: 37 F (3 C)
Dew Point: 35 F (2 C)
Relative Humidity: 93%
Pressure (altimeter): 29.87 in. Hg (1011 hPa)
ob: KFKL 170307Z AUTO 29007KT 10SM OVC007 03/02 A2987 RMK AO2 UPE0257 CIG 004V012
cycle: 3

Station Type Date Time Source
KFKL TAF 2021/04/17 01:27 UTC NOAA

TAF
AMD KFKL 170125Z 1701/1724 29005KT 4SM -DZ BR OVC005
FM170700 30005KT 3SM BR BKN003
FM171400 31004KT P6SM BKN007
FM171600 31004KT P6SM BKN015

Example: see airport list